sensor_id;sensor_type;location;lat;lon;timestamp;P1;durP1;ratioP1;P2;durP2;ratioP2
54269;SDS011;40181;51.560;13.000;2024-02-16T00:00:22;6.35;;;5.07;;
54269;SDS011;40181;51.560;13.000;2024-02-16T00:02:52;6.47;;;5.45;;
54269;SDS011;40181;51.560;13.000;2024-02-16T00:05:21;6.18;;;5.50;;
54269;SDS011;40181;51.560;13.000;2024-02-16T00:07:50;7.53;;;5.35;;
54269;SDS011;40181;51.560;13.000;2024-02-16T00:10:22;6.97;;;5.97;;
54269;SDS011;40181;51.560;13.000;2024-02-16T00:12:51;6.32;;;5.55;;
54269;SDS011;40181;51.560;13.000;2024-02-16T00:15:20;7.70;;;6.38;;
54269;SDS011;40181;51.560;13.000;2024-02-16T00:17:49;7.35;;;5.60;;
54269;SDS011;40181;51.560;13.000;2024-02-16T00:20:18;6.68;;;5.45;;
54269;SDS011;40181;51.560;13.000;2024-02-16T00:22:49;6.95;;;5.30;;
54269;SDS011;40181;51.560;13.000;2024-02-16T00:25:21;6.15;;;4.97;;
54269;SDS011;40181;51.560;13.000;2024-02-16T00:27:50;7.20;;;5.45;;
54269;SDS011;40181;51.560;13.000;2024-02-16T00:30:19;7.90;;;5.50;;
54269;SDS011;40181;51.560;13.000;2024-02-16T00:32:49;6.45;;;5.18;;
54269;SDS011;40181;51.560;13.000;2024-02-16T00:35:18;8.05;;;5.38;;
54269;SDS011;40181;51.560;13.000;2024-02-16T00:37:47;5.55;;;4.95;;
54269;SDS011;40181;51.560;13.000;2024-02-16T00:40:22;5.72;;;5.10;;
54269;SDS011;40181;51.560;13.000;2024-02-16T00:42:51;7.07;;;5.45;;
54269;SDS011;40181;51.560;13.000;2024-02-16T00:45:20;8.20;;;6.53;;
54269;SDS011;40181;51.560;13.000;2024-02-16T00:47:50;7.22;;;5.63;;
54269;SDS011;40181;51.560;13.000;2024-02-16T00:50:19;7.55;;;5.53;;
54269;SDS011;40181;51.560;13.000;2024-02-16T00:52:48;6.80;;;5.70;;
54269;SDS011;40181;51.560;13.000;2024-02-16T00:55:17;9.60;;;6.35;;
54269;SDS011;40181;51.560;13.000;2024-02-16T00:57:49;8.02;;;6.38;;
54269;SDS011;40181;51.560;13.000;2024-02-16T01:00:18;8.27;;;6.20;;
54269;SDS011;40181;51.560;13.000;2024-02-16T01:02:48;6.60;;;5.57;;
54269;SDS011;40181;51.560;13.000;2024-02-16T01:05:17;11.68;;;5.97;;
54269;SDS011;40181;51.560;13.000;2024-02-16T01:07:48;9.55;;;6.72;;
54269;SDS011;40181;51.560;13.000;2024-02-16T01:10:17;6.90;;;5.65;;
54269;SDS011;40181;51.560;13.000;2024-02-16T01:12:49;11.60;;;7.90;;
54269;SDS011;40181;51.560;13.000;2024-02-16T01:15:21;8.50;;;6.65;;
54269;SDS011;40181;51.560;13.000;2024-02-16T01:17:50;6.85;;;6.15;;
54269;SDS011;40181;51.560;13.000;2024-02-16T01:20:19;9.40;;;7.03;;
54269;SDS011;40181;51.560;13.000;2024-02-16T01:22:48;8.60;;;6.55;;
54269;SDS011;40181;51.560;13.000;2024-02-16T01:25:17;8.32;;;6.95;;
54269;SDS011;40181;51.560;13.000;2024-02-16T01:27:49;7.30;;;6.10;;
54269;SDS011;40181;51.560;13.000;2024-02-16T01:30:18;10.05;;;6.55;;
54269;SDS011;40181;51.560;13.000;2024-02-16T01:32:47;8.45;;;7.22;;
54269;SDS011;40181;51.560;13.000;2024-02-16T01:35:16;8.38;;;7.25;;
54269;SDS011;40181;51.560;13.000;2024-02-16T01:37:45;8.48;;;7.28;;
54269;SDS011;40181;51.560;13.000;2024-02-16T01:40:15;14.48;;;7.18;;
54269;SDS011;40181;51.560;13.000;2024-02-16T01:42:44;8.63;;;7.40;;
54269;SDS011;40181;51.560;13.000;2024-02-16T01:45:18;9.27;;;6.85;;
54269;SDS011;40181;51.560;13.000;2024-02-16T01:47:47;9.68;;;8.05;;
54269;SDS011;40181;51.560;13.000;2024-02-16T01:50:19;9.43;;;6.63;;
54269;SDS011;40181;51.560;13.000;2024-02-16T01:52:48;7.97;;;7.20;;
54269;SDS011;40181;51.560;13.000;2024-02-16T01:55:18;11.32;;;8.55;;
54269;SDS011;40181;51.560;13.000;2024-02-16T01:57:51;10.57;;;6.47;;
54269;SDS011;40181;51.560;13.000;2024-02-16T02:00:20;10.10;;;7.78;;
54269;SDS011;40181;51.560;13.000;2024-02-16T02:02:49;8.75;;;7.40;;
54269;SDS011;40181;51.560;13.000;2024-02-16T02:05:19;10.30;;;7.28;;
54269;SDS011;40181;51.560;13.000;2024-02-16T02:07:48;8.32;;;6.95;;
54269;SDS011;40181;51.560;13.000;2024-02-16T02:10:18;9.10;;;7.22;;
54269;SDS011;40181;51.560;13.000;2024-02-16T02:12:47;8.93;;;7.65;;
54269;SDS011;40181;51.560;13.000;2024-02-16T02:15:19;10.95;;;7.35;;
54269;SDS011;40181;51.560;13.000;2024-02-16T02:17:48;7.43;;;6.72;;
54269;SDS011;40181;51.560;13.000;2024-02-16T02:20:17;7.50;;;6.55;;
54269;SDS011;40181;51.560;13.000;2024-02-16T02:22:48;10.00;;;7.65;;
54269;SDS011;40181;51.560;13.000;2024-02-16T02:25:18;13.60;;;8.30;;
54269;SDS011;40181;51.560;13.000;2024-02-16T02:27:47;12.70;;;9.10;;
54269;SDS011;40181;51.560;13.000;2024-02-16T02:30:16;9.52;;;7.80;;
54269;SDS011;40181;51.560;13.000;2024-02-16T02:32:46;14.10;;;8.13;;
54269;SDS011;40181;51.560;13.000;2024-02-16T02:35:15;9.63;;;7.68;;
54269;SDS011;40181;51.560;13.000;2024-02-16T02:37:45;10.75;;;7.60;;
54269;SDS011;40181;51.560;13.000;2024-02-16T02:40:17;8.52;;;6.20;;
54269;SDS011;40181;51.560;13.000;2024-02-16T02:42:46;9.98;;;7.38;;
54269;SDS011;40181;51.560;13.000;2024-02-16T02:45:15;23.83;;;7.53;;
54269;SDS011;40181;51.560;13.000;2024-02-16T02:47:44;9.32;;;7.55;;
54269;SDS011;40181;51.560;13.000;2024-02-16T02:50:13;10.07;;;7.35;;
54269;SDS011;40181;51.560;13.000;2024-02-16T02:52:43;7.28;;;6.57;;
54269;SDS011;40181;51.560;13.000;2024-02-16T02:55:15;8.18;;;7.05;;
54269;SDS011;40181;51.560;13.000;2024-02-16T02:57:44;9.10;;;7.90;;
54269;SDS011;40181;51.560;13.000;2024-02-16T03:00:14;12.05;;;8.30;;
54269;SDS011;40181;51.560;13.000;2024-02-16T03:02:44;8.32;;;7.53;;
54269;SDS011;40181;51.560;13.000;2024-02-16T03:05:13;9.73;;;7.60;;
54269;SDS011;40181;51.560;13.000;2024-02-16T03:07:45;9.27;;;7.25;;
54269;SDS011;40181;51.560;13.000;2024-02-16T03:10:16;8.88;;;6.97;;
54269;SDS011;40181;51.560;13.000;2024-02-16T03:12:47;8.90;;;7.97;;
54269;SDS011;40181;51.560;13.000;2024-02-16T03:15:16;6.90;;;5.97;;
54269;SDS011;40181;51.560;13.000;2024-02-16T03:17:45;7.32;;;6.20;;
54269;SDS011;40181;51.560;13.000;2024-02-16T03:20:15;6.82;;;5.70;;
54269;SDS011;40181;51.560;13.000;2024-02-16T03:22:44;8.40;;;6.75;;
54269;SDS011;40181;51.560;13.000;2024-02-16T03:25:16;8.30;;;6.38;;
54269;SDS011;40181;51.560;13.000;2024-02-16T03:27:45;7.47;;;6.75;;
54269;SDS011;40181;51.560;13.000;2024-02-16T03:30:14;7.82;;;6.88;;
54269;SDS011;40181;51.560;13.000;2024-02-16T03:32:47;8.10;;;6.97;;
54269;SDS011;40181;51.560;13.000;2024-02-16T03:35:17;10.25;;;7.03;;
54269;SDS011;40181;51.560;13.000;2024-02-16T03:37:46;10.00;;;6.72;;
54269;SDS011;40181;51.560;13.000;2024-02-16T03:40:18;7.57;;;6.75;;
54269;SDS011;40181;51.560;13.000;2024-02-16T03:42:47;7.85;;;7.05;;
54269;SDS011;40181;51.560;13.000;2024-02-16T03:45:16;11.68;;;7.05;;
54269;SDS011;40181;51.560;13.000;2024-02-16T03:47:46;12.02;;;8.90;;
54269;SDS011;40181;51.560;13.000;2024-02-16T03:50:17;8.05;;;7.25;;
54269;SDS011;40181;51.560;13.000;2024-02-16T03:52:47;11.07;;;7.40;;
54269;SDS011;40181;51.560;13.000;2024-02-16T03:55:19;8.63;;;6.38;;
54269;SDS011;40181;51.560;13.000;2024-02-16T03:57:48;12.10;;;8.13;;
54269;SDS011;40181;51.560;13.000;2024-02-16T04:00:17;12.27;;;9.00;;
54269;SDS011;40181;51.560;13.000;2024-02-16T04:02:46;8.32;;;6.95;;
54269;SDS011;40181;51.560;13.000;2024-02-16T04:05:15;10.57;;;8.23;;
54269;SDS011;40181;51.560;13.000;2024-02-16T04:07:44;10.10;;;7.18;;
54269;SDS011;40181;51.560;13.000;2024-02-16T04:10:14;9.57;;;6.97;;
54269;SDS011;40181;51.560;13.000;2024-02-16T04:12:46;7.93;;;6.03;;
54269;SDS011;40181;51.560;13.000;2024-02-16T04:15:15;9.80;;;7.53;;
54269;SDS011;40181;51.560;13.000;2024-02-16T04:17:44;10.27;;;7.72;;
54269;SDS011;40181;51.560;13.000;2024-02-16T04:20:14;8.93;;;7.45;;
54269;SDS011;40181;51.560;13.000;2024-02-16T04:22:43;8.25;;;6.72;;
54269;SDS011;40181;51.560;13.000;2024-02-16T04:25:13;8.25;;;7.32;;
54269;SDS011;40181;51.560;13.000;2024-02-16T04:27:42;12.85;;;8.80;;
54269;SDS011;40181;51.560;13.000;2024-02-16T04:30:13;8.35;;;6.13;;
54269;SDS011;40181;51.560;13.000;2024-02-16T04:32:42;7.78;;;6.53;;
54269;SDS011;40181;51.560;13.000;2024-02-16T04:35:11;8.48;;;7.55;;
54269;SDS011;40181;51.560;13.000;2024-02-16T04:37:41;6.97;;;6.28;;
54269;SDS011;40181;51.560;13.000;2024-02-16T04:40:11;10.43;;;6.90;;
54269;SDS011;40181;51.560;13.000;2024-02-16T04:42:40;8.03;;;7.20;;
54269;SDS011;40181;51.560;13.000;2024-02-16T04:45:13;12.75;;;8.32;;
54269;SDS011;40181;51.560;13.000;2024-02-16T04:47:42;7.65;;;6.70;;
54269;SDS011;40181;51.560;13.000;2024-02-16T04:50:12;11.57;;;7.82;;
54269;SDS011;40181;51.560;13.000;2024-02-16T04:52:41;7.72;;;6.30;;
54269;SDS011;40181;51.560;13.000;2024-02-16T04:55:10;8.35;;;7.05;;
54269;SDS011;40181;51.560;13.000;2024-02-16T04:57:39;9.50;;;6.72;;
54269;SDS011;40181;51.560;13.000;2024-02-16T05:00:08;12.65;;;7.50;;
54269;SDS011;40181;51.560;13.000;2024-02-16T05:02:41;7.55;;;6.60;;
54269;SDS011;40181;51.560;13.000;2024-02-16T05:05:10;7.30;;;6.18;;
54269;SDS011;40181;51.560;13.000;2024-02-16T05:07:40;7.40;;;6.07;;
54269;SDS011;40181;51.560;13.000;2024-02-16T05:10:11;7.25;;;6.50;;
54269;SDS011;40181;51.560;13.000;2024-02-16T05:12:40;8.10;;;6.43;;
54269;SDS011;40181;51.560;13.000;2024-02-16T05:15:09;10.45;;;6.72;;
54269;SDS011;40181;51.560;13.000;2024-02-16T05:17:42;10.93;;;7.07;;
54269;SDS011;40181;51.560;13.000;2024-02-16T05:20:14;8.45;;;6.72;;
54269;SDS011;40181;51.560;13.000;2024-02-16T05:22:44;10.10;;;7.15;;
54269;SDS011;40181;51.560;13.000;2024-02-16T05:25:15;10.30;;;6.72;;
54269;SDS011;40181;51.560;13.000;2024-02-16T05:27:45;13.07;;;6.95;;
54269;SDS011;40181;51.560;13.000;2024-02-16T05:30:17;7.47;;;5.50;;
54269;SDS011;40181;51.560;13.000;2024-02-16T05:32:47;5.97;;;5.05;;
54269;SDS011;40181;51.560;13.000;2024-02-16T05:35:18;7.15;;;5.93;;
54269;SDS011;40181;51.560;13.000;2024-02-16T05:37:48;8.60;;;6.10;;
54269;SDS011;40181;51.560;13.000;2024-02-16T05:40:18;7.97;;;6.77;;
54269;SDS011;40181;51.560;13.000;2024-02-16T05:42:50;8.68;;;6.00;;
54269;SDS011;40181;51.560;13.000;2024-02-16T05:45:25;8.32;;;7.28;;
54269;SDS011;40181;51.560;13.000;2024-02-16T05:47:55;7.78;;;6.78;;
54269;SDS011;40181;51.560;13.000;2024-02-16T05:50:24;11.98;;;6.72;;
54269;SDS011;40181;51.560;13.000;2024-02-16T05:52:53;7.75;;;6.25;;
54269;SDS011;40181;51.560;13.000;2024-02-16T05:55:22;11.73;;;6.13;;
54269;SDS011;40181;51.560;13.000;2024-02-16T05:57:52;9.25;;;6.63;;
54269;SDS011;40181;51.560;13.000;2024-02-16T06:00:21;8.50;;;6.05;;
54269;SDS011;40181;51.560;13.000;2024-02-16T06:02:52;7.10;;;5.85;;
54269;SDS011;40181;51.560;13.000;2024-02-16T06:05:21;11.10;;;6.32;;
54269;SDS011;40181;51.560;13.000;2024-02-16T06:07:50;6.18;;;4.68;;
54269;SDS011;40181;51.560;13.000;2024-02-16T06:10:21;7.70;;;4.53;;
54269;SDS011;40181;51.560;13.000;2024-02-16T06:12:51;6.85;;;5.40;;
54269;SDS011;40181;51.560;13.000;2024-02-16T06:15:20;7.25;;;5.55;;
54269;SDS011;40181;51.560;13.000;2024-02-16T06:17:51;7.28;;;5.45;;
54269;SDS011;40181;51.560;13.000;2024-02-16T06:20:20;6.60;;;5.65;;
54269;SDS011;40181;51.560;13.000;2024-02-16T06:22:49;7.70;;;5.20;;
54269;SDS011;40181;51.560;13.000;2024-02-16T06:25:18;7.25;;;5.60;;
54269;SDS011;40181;51.560;13.000;2024-02-16T06:27:47;9.88;;;5.25;;
54269;SDS011;40181;51.560;13.000;2024-02-16T06:30:16;7.20;;;5.45;;
54269;SDS011;40181;51.560;13.000;2024-02-16T06:32:46;8.45;;;6.13;;
54269;SDS011;40181;51.560;13.000;2024-02-16T06:35:18;10.18;;;6.22;;
54269;SDS011;40181;51.560;13.000;2024-02-16T06:37:47;7.15;;;5.75;;
54269;SDS011;40181;51.560;13.000;2024-02-16T06:40:16;7.63;;;5.03;;
54269;SDS011;40181;51.560;13.000;2024-02-16T06:42:46;6.80;;;5.27;;
54269;SDS011;40181;51.560;13.000;2024-02-16T06:45:15;7.40;;;5.18;;
54269;SDS011;40181;51.560;13.000;2024-02-16T06:47:45;7.55;;;6.18;;
54269;SDS011;40181;51.560;13.000;2024-02-16T06:50:14;6.05;;;4.60;;
54269;SDS011;40181;51.560;13.000;2024-02-16T06:52:46;7.95;;;6.13;;
54269;SDS011;40181;51.560;13.000;2024-02-16T06:55:15;9.85;;;6.22;;
54269;SDS011;40181;51.560;13.000;2024-02-16T06:57:44;6.75;;;5.22;;
54269;SDS011;40181;51.560;13.000;2024-02-16T07:00:13;6.68;;;4.95;;
54269;SDS011;40181;51.560;13.000;2024-02-16T07:02:45;6.38;;;4.97;;
54269;SDS011;40181;51.560;13.000;2024-02-16T07:05:14;7.95;;;5.03;;
54269;SDS011;40181;51.560;13.000;2024-02-16T07:07:46;8.88;;;6.30;;
54269;SDS011;40181;51.560;13.000;2024-02-16T07:10:15;6.60;;;5.40;;
54269;SDS011;40181;51.560;13.000;2024-02-16T07:12:44;7.32;;;5.47;;
54269;SDS011;40181;51.560;13.000;2024-02-16T07:15:13;7.15;;;5.32;;
54269;SDS011;40181;51.560;13.000;2024-02-16T07:17:42;7.50;;;5.80;;
54269;SDS011;40181;51.560;13.000;2024-02-16T07:20:11;6.82;;;5.78;;
54269;SDS011;40181;51.560;13.000;2024-02-16T07:22:44;9.15;;;7.28;;
54269;SDS011;40181;51.560;13.000;2024-02-16T07:25:16;11.35;;;8.45;;
54269;SDS011;40181;51.560;13.000;2024-02-16T07:27:45;12.98;;;9.98;;
54269;SDS011;40181;51.560;13.000;2024-02-16T07:30:14;9.63;;;8.15;;
54269;SDS011;40181;51.560;13.000;2024-02-16T07:32:47;10.85;;;6.75;;
54269;SDS011;40181;51.560;13.000;2024-02-16T07:35:17;14.43;;;6.90;;
54269;SDS011;40181;51.560;13.000;2024-02-16T07:37:51;12.68;;;6.45;;
54269;SDS011;40181;51.560;13.000;2024-02-16T07:40:20;6.80;;;6.10;;
54269;SDS011;40181;51.560;13.000;2024-02-16T07:42:50;7.57;;;5.53;;
54269;SDS011;40181;51.560;13.000;2024-02-16T07:45:19;7.07;;;5.72;;
54269;SDS011;40181;51.560;13.000;2024-02-16T07:47:49;10.25;;;5.57;;
54269;SDS011;40181;51.560;13.000;2024-02-16T07:50:19;7.30;;;5.32;;
54269;SDS011;40181;51.560;13.000;2024-02-16T07:52:51;10.43;;;5.80;;
54269;SDS011;40181;51.560;13.000;2024-02-16T07:55:20;9.10;;;5.32;;
54269;SDS011;40181;51.560;13.000;2024-02-16T07:57:49;5.63;;;5.05;;
54269;SDS011;40181;51.560;13.000;2024-02-16T08:00:19;7.55;;;6.07;;
54269;SDS011;40181;51.560;13.000;2024-02-16T08:02:48;6.33;;;5.47;;
54269;SDS011;40181;51.560;13.000;2024-02-16T08:05:18;5.32;;;4.57;;
54269;SDS011;40181;51.560;13.000;2024-02-16T08:07:52;6.55;;;5.30;;
54269;SDS011;40181;51.560;13.000;2024-02-16T08:10:21;7.25;;;4.18;;
54269;SDS011;40181;51.560;13.000;2024-02-16T08:12:51;7.57;;;5.83;;
54269;SDS011;40181;51.560;13.000;2024-02-16T08:15:20;7.53;;;5.97;;
54269;SDS011;40181;51.560;13.000;2024-02-16T08:20:22;6.30;;;4.57;;
54269;SDS011;40181;51.560;13.000;2024-02-16T08:22:54;10.52;;;5.75;;
54269;SDS011;40181;51.560;13.000;2024-02-16T08:25:24;8.85;;;6.45;;
54269;SDS011;40181;51.560;13.000;2024-02-16T08:27:55;11.23;;;8.60;;
54269;SDS011;40181;51.560;13.000;2024-02-16T08:30:24;10.30;;;6.03;;
54269;SDS011;40181;51.560;13.000;2024-02-16T08:32:53;7.40;;;5.55;;
54269;SDS011;40181;51.560;13.000;2024-02-16T08:35:23;7.63;;;5.93;;
54269;SDS011;40181;51.560;13.000;2024-02-16T08:37:55;7.32;;;5.13;;
54269;SDS011;40181;51.560;13.000;2024-02-16T08:40:24;7.38;;;5.10;;
54269;SDS011;40181;51.560;13.000;2024-02-16T08:42:53;6.15;;;4.43;;
54269;SDS011;40181;51.560;13.000;2024-02-16T08:45:23;7.85;;;4.15;;
54269;SDS011;40181;51.560;13.000;2024-02-16T08:47:53;5.53;;;3.58;;
54269;SDS011;40181;51.560;13.000;2024-02-16T08:50:22;6.30;;;4.80;;
54269;SDS011;40181;51.560;13.000;2024-02-16T08:52:52;7.18;;;4.70;;
54269;SDS011;40181;51.560;13.000;2024-02-16T08:55:23;5.00;;;4.28;;
54269;SDS011;40181;51.560;13.000;2024-02-16T08:57:52;5.18;;;3.97;;
54269;SDS011;40181;51.560;13.000;2024-02-16T09:00:22;3.63;;;3.22;;
54269;SDS011;40181;51.560;13.000;2024-02-16T09:02:52;4.60;;;4.05;;
54269;SDS011;40181;51.560;13.000;2024-02-16T09:05:23;9.63;;;3.78;;
54269;SDS011;40181;51.560;13.000;2024-02-16T09:07:52;8.10;;;3.80;;
54269;SDS011;40181;51.560;13.000;2024-02-16T09:10:23;5.47;;;3.13;;
54269;SDS011;40181;51.560;13.000;2024-02-16T09:12:52;4.30;;;2.88;;
54269;SDS011;40181;51.560;13.000;2024-02-16T09:15:21;3.70;;;2.92;;
54269;SDS011;40181;51.560;13.000;2024-02-16T09:17:50;3.10;;;2.45;;
54269;SDS011;40181;51.560;13.000;2024-02-16T09:20:19;4.90;;;3.40;;
54269;SDS011;40181;51.560;13.000;2024-02-16T09:22:49;3.92;;;2.55;;
54269;SDS011;40181;51.560;13.000;2024-02-16T09:25:20;4.72;;;2.30;;
54269;SDS011;40181;51.560;13.000;2024-02-16T09:27:49;2.60;;;1.83;;
54269;SDS011;40181;51.560;13.000;2024-02-16T09:30:18;2.45;;;1.63;;
54269;SDS011;40181;51.560;13.000;2024-02-16T09:32:47;2.80;;;1.98;;
54269;SDS011;40181;51.560;13.000;2024-02-16T09:35:17;3.20;;;2.03;;
54269;SDS011;40181;51.560;13.000;2024-02-16T09:37:46;2.28;;;1.73;;
54269;SDS011;40181;51.560;13.000;2024-02-16T09:40:15;4.03;;;2.10;;
54269;SDS011;40181;51.560;13.000;2024-02-16T09:42:49;2.72;;;1.67;;
54269;SDS011;40181;51.560;13.000;2024-02-16T09:45:19;3.33;;;2.28;;
54269;SDS011;40181;51.560;13.000;2024-02-16T09:47:49;3.08;;;2.10;;
54269;SDS011;40181;51.560;13.000;2024-02-16T09:52:49;8.02;;;3.45;;
54269;SDS011;40181;51.560;13.000;2024-02-16T09:55:19;9.23;;;4.90;;
54269;SDS011;40181;51.560;13.000;2024-02-16T09:58:00;5.35;;;3.50;;
54269;SDS011;40181;51.560;13.000;2024-02-16T10:00:30;4.65;;;2.75;;
54269;SDS011;40181;51.560;13.000;2024-02-16T10:03:00;4.25;;;3.08;;
54269;SDS011;40181;51.560;13.000;2024-02-16T10:05:29;4.22;;;2.92;;
54269;SDS011;40181;51.560;13.000;2024-02-16T10:07:58;4.13;;;2.72;;
54269;SDS011;40181;51.560;13.000;2024-02-16T10:10:27;5.53;;;3.03;;
54269;SDS011;40181;51.560;13.000;2024-02-16T10:13:05;5.60;;;3.95;;
54269;SDS011;40181;51.560;13.000;2024-02-16T10:15:36;4.88;;;3.63;;
54269;SDS011;40181;51.560;13.000;2024-02-16T10:18:06;3.92;;;3.03;;
54269;SDS011;40181;51.560;13.000;2024-02-16T10:20:35;6.13;;;3.90;;
54269;SDS011;40181;51.560;13.000;2024-02-16T10:23:07;4.22;;;3.22;;
54269;SDS011;40181;51.560;13.000;2024-02-16T10:25:38;4.68;;;3.42;;
54269;SDS011;40181;51.560;13.000;2024-02-16T10:28:11;4.50;;;3.50;;
54269;SDS011;40181;51.560;13.000;2024-02-16T10:30:42;4.05;;;2.78;;
54269;SDS011;40181;51.560;13.000;2024-02-16T10:35:41;3.55;;;2.50;;
54269;SDS011;40181;51.560;13.000;2024-02-16T10:38:12;8.05;;;2.95;;
54269;SDS011;40181;51.560;13.000;2024-02-16T10:40:42;3.55;;;2.70;;
54269;SDS011;40181;51.560;13.000;2024-02-16T10:43:14;4.80;;;3.33;;
54269;SDS011;40181;51.560;13.000;2024-02-16T10:45:46;4.72;;;3.85;;
54269;SDS011;40181;51.560;13.000;2024-02-16T10:48:18;4.55;;;3.15;;
54269;SDS011;40181;51.560;13.000;2024-02-16T10:50:47;4.97;;;3.50;;
54269;SDS011;40181;51.560;13.000;2024-02-16T10:53:19;6.60;;;4.03;;
54269;SDS011;40181;51.560;13.000;2024-02-16T10:55:56;6.22;;;4.00;;
54269;SDS011;40181;51.560;13.000;2024-02-16T10:58:29;8.75;;;4.07;;
54269;SDS011;40181;51.560;13.000;2024-02-16T11:01:07;5.05;;;3.95;;
54269;SDS011;40181;51.560;13.000;2024-02-16T11:03:37;3.88;;;2.72;;
54269;SDS011;40181;51.560;13.000;2024-02-16T11:06:16;4.77;;;3.77;;
54269;SDS011;40181;51.560;13.000;2024-02-16T11:08:48;5.30;;;3.90;;
54269;SDS011;40181;51.560;13.000;2024-02-16T11:11:22;11.30;;;4.05;;
54269;SDS011;40181;51.560;13.000;2024-02-16T11:13:56;7.47;;;5.13;;
54269;SDS011;40181;51.560;13.000;2024-02-16T11:16:25;8.18;;;5.07;;
54269;SDS011;40181;51.560;13.000;2024-02-16T11:18:54;7.47;;;5.60;;
54269;SDS011;40181;51.560;13.000;2024-02-16T11:21:28;5.32;;;4.75;;
54269;SDS011;40181;51.560;13.000;2024-02-16T11:24:03;5.40;;;4.57;;
54269;SDS011;40181;51.560;13.000;2024-02-16T11:26:41;4.80;;;4.25;;
54269;SDS011;40181;51.560;13.000;2024-02-16T11:29:14;6.47;;;4.90;;
54269;SDS011;40181;51.560;13.000;2024-02-16T11:31:43;4.55;;;3.63;;
54269;SDS011;40181;51.560;13.000;2024-02-16T11:34:20;3.65;;;3.25;;
54269;SDS011;40181;51.560;13.000;2024-02-16T11:36:51;5.05;;;3.17;;
54269;SDS011;40181;51.560;13.000;2024-02-16T11:39:22;5.85;;;3.38;;
54269;SDS011;40181;51.560;13.000;2024-02-16T11:42:01;1.90;;;1.20;;
54269;SDS011;40181;51.560;13.000;2024-02-16T11:44:35;4.70;;;1.05;;
54269;SDS011;40181;51.560;13.000;2024-02-16T11:47:05;1.90;;;0.98;;
54269;SDS011;40181;51.560;13.000;2024-02-16T11:49:37;2.20;;;0.90;;
54269;SDS011;40181;51.560;13.000;2024-02-16T11:52:07;1.05;;;0.80;;
54269;SDS011;40181;51.560;13.000;2024-02-16T11:54:36;1.80;;;1.20;;
54269;SDS011;40181;51.560;13.000;2024-02-16T11:57:06;1.58;;;1.10;;
54269;SDS011;40181;51.560;13.000;2024-02-16T11:59:37;1.48;;;0.98;;
54269;SDS011;40181;51.560;13.000;2024-02-16T12:02:06;0.60;;;0.52;;
54269;SDS011;40181;51.560;13.000;2024-02-16T12:04:35;1.23;;;0.77;;
54269;SDS011;40181;51.560;13.000;2024-02-16T12:07:04;1.55;;;0.85;;
54269;SDS011;40181;51.560;13.000;2024-02-16T12:09:34;7.40;;;1.77;;
54269;SDS011;40181;51.560;13.000;2024-02-16T12:12:04;16.27;;;3.53;;
54269;SDS011;40181;51.560;13.000;2024-02-16T12:14:34;3.95;;;1.77;;
54269;SDS011;40181;51.560;13.000;2024-02-16T12:17:06;5.32;;;1.67;;
54269;SDS011;40181;51.560;13.000;2024-02-16T12:19:35;3.60;;;1.17;;
54269;SDS011;40181;51.560;13.000;2024-02-16T12:22:04;2.55;;;0.88;;
54269;SDS011;40181;51.560;13.000;2024-02-16T12:24:33;0.77;;;0.50;;
54269;SDS011;40181;51.560;13.000;2024-02-16T12:27:03;0.50;;;0.50;;
54269;SDS011;40181;51.560;13.000;2024-02-16T12:29:32;0.85;;;0.70;;
54269;SDS011;40181;51.560;13.000;2024-02-16T12:32:04;6.55;;;1.05;;
54269;SDS011;40181;51.560;13.000;2024-02-16T12:34:34;5.55;;;2.08;;
54269;SDS011;40181;51.560;13.000;2024-02-16T12:37:04;1.30;;;0.90;;
54269;SDS011;40181;51.560;13.000;2024-02-16T12:39:36;2.13;;;1.00;;
54269;SDS011;40181;51.560;13.000;2024-02-16T12:42:06;0.85;;;0.70;;
54269;SDS011;40181;51.560;13.000;2024-02-16T12:44:35;1.67;;;0.70;;
54269;SDS011;40181;51.560;13.000;2024-02-16T12:47:06;1.35;;;0.98;;
54269;SDS011;40181;51.560;13.000;2024-02-16T12:49:35;1.35;;;0.63;;
54269;SDS011;40181;51.560;13.000;2024-02-16T12:52:04;2.60;;;1.10;;
54269;SDS011;40181;51.560;13.000;2024-02-16T12:54:34;1.90;;;0.60;;
54269;SDS011;40181;51.560;13.000;2024-02-16T12:57:03;0.77;;;0.60;;
54269;SDS011;40181;51.560;13.000;2024-02-16T12:59:32;1.02;;;0.70;;
54269;SDS011;40181;51.560;13.000;2024-02-16T13:02:02;0.70;;;0.63;;
54269;SDS011;40181;51.560;13.000;2024-02-16T13:04:34;1.80;;;0.75;;
54269;SDS011;40181;51.560;13.000;2024-02-16T13:07:03;1.20;;;0.90;;
54269;SDS011;40181;51.560;13.000;2024-02-16T13:09:32;3.70;;;1.40;;
54269;SDS011;40181;51.560;13.000;2024-02-16T13:12:02;2.15;;;1.33;;
54269;SDS011;40181;51.560;13.000;2024-02-16T13:14:31;3.30;;;1.27;;
54269;SDS011;40181;51.560;13.000;2024-02-16T13:17:01;2.13;;;1.13;;
54269;SDS011;40181;51.560;13.000;2024-02-16T13:19:33;2.20;;;1.23;;
54269;SDS011;40181;51.560;13.000;2024-02-16T13:22:03;1.83;;;0.82;;
54269;SDS011;40181;51.560;13.000;2024-02-16T13:24:32;1.40;;;1.00;;
54269;SDS011;40181;51.560;13.000;2024-02-16T13:27:01;1.35;;;0.77;;
54269;SDS011;40181;51.560;13.000;2024-02-16T13:29:31;1.17;;;0.73;;
54269;SDS011;40181;51.560;13.000;2024-02-16T13:32:01;1.38;;;0.90;;
54269;SDS011;40181;51.560;13.000;2024-02-16T13:34:30;1.35;;;0.93;;
54269;SDS011;40181;51.560;13.000;2024-02-16T13:37:02;3.13;;;1.70;;
54269;SDS011;40181;51.560;13.000;2024-02-16T13:39:31;0.85;;;0.82;;
54269;SDS011;40181;51.560;13.000;2024-02-16T13:42:00;1.92;;;0.90;;
54269;SDS011;40181;51.560;13.000;2024-02-16T13:44:29;0.68;;;0.60;;
54269;SDS011;40181;51.560;13.000;2024-02-16T13:46:58;3.90;;;1.27;;
54269;SDS011;40181;51.560;13.000;2024-02-16T13:49:27;1.23;;;0.80;;
54269;SDS011;40181;51.560;13.000;2024-02-16T13:51:59;3.63;;;0.70;;
54269;SDS011;40181;51.560;13.000;2024-02-16T13:54:28;1.88;;;1.08;;
54269;SDS011;40181;51.560;13.000;2024-02-16T13:56:57;2.33;;;1.20;;
54269;SDS011;40181;51.560;13.000;2024-02-16T13:59:26;1.08;;;0.85;;
54269;SDS011;40181;51.560;13.000;2024-02-16T14:01:56;0.98;;;0.60;;
54269;SDS011;40181;51.560;13.000;2024-02-16T14:04:25;1.30;;;0.85;;
54269;SDS011;40181;51.560;13.000;2024-02-16T14:06:55;1.10;;;0.80;;
54269;SDS011;40181;51.560;13.000;2024-02-16T14:09:26;2.00;;;1.30;;
54269;SDS011;40181;51.560;13.000;2024-02-16T14:11:55;0.82;;;0.70;;
54269;SDS011;40181;51.560;13.000;2024-02-16T14:14:25;1.60;;;0.98;;
54269;SDS011;40181;51.560;13.000;2024-02-16T14:16:54;1.38;;;0.70;;
54269;SDS011;40181;51.560;13.000;2024-02-16T14:19:23;1.85;;;0.90;;
54269;SDS011;40181;51.560;13.000;2024-02-16T14:21:52;1.50;;;0.77;;
54269;SDS011;40181;51.560;13.000;2024-02-16T14:24:24;1.63;;;1.00;;
54269;SDS011;40181;51.560;13.000;2024-02-16T14:26:53;0.95;;;0.85;;
54269;SDS011;40181;51.560;13.000;2024-02-16T14:29:24;0.85;;;0.63;;
54269;SDS011;40181;51.560;13.000;2024-02-16T14:31:54;1.50;;;1.33;;
54269;SDS011;40181;51.560;13.000;2024-02-16T14:34:23;1.88;;;1.05;;
54269;SDS011;40181;51.560;13.000;2024-02-16T14:36:52;1.35;;;0.80;;
54269;SDS011;40181;51.560;13.000;2024-02-16T14:39:24;5.70;;;1.55;;
54269;SDS011;40181;51.560;13.000;2024-02-16T14:41:53;1.65;;;1.23;;
54269;SDS011;40181;51.560;13.000;2024-02-16T14:44:22;1.15;;;0.90;;
54269;SDS011;40181;51.560;13.000;2024-02-16T14:46:51;0.43;;;0.43;;
54269;SDS011;40181;51.560;13.000;2024-02-16T14:51:51;0.60;;;0.60;;
54269;SDS011;40181;51.560;13.000;2024-02-16T14:54:20;1.35;;;0.73;;
54269;SDS011;40181;51.560;13.000;2024-02-16T14:56:52;1.77;;;1.15;;
54269;SDS011;40181;51.560;13.000;2024-02-16T14:59:21;1.63;;;1.10;;